Time;durP1;ratioP1;P1;durP2;ratioP2;P2;SDS_P1;SDS_P2;PMS_P1;PMS_P2;Temp;Humidity;BMP_temperature;BMP_pressure;BME280_temperature;BME280_humidity;BME280_pressure;Samples;Min_cycle;Max_cycle;Signal;HPM_P1;HPM_P2
2023/01/20 00:02:01;;;;;;;5.03;2.50;;;;;;;;;;5086619;28;20622;-85
2023/01/20 00:04:47;;;;;;;3.83;2.10;;;-0.20;99.90;;;;;;5073188;28;20047;-86
2023/01/20 00:07:33;;;;;;;6.03;3.30;;;;;;;;;;5058070;28;20093;-87
2023/01/20 00:10:18;;;;;;;8.63;3.17;;;;;;;;;;5058525;28;20031;-85
2023/01/20 00:13:02;;;;;;;7.97;2.97;;;;;;;;;;5078424;28;20085;-85
2023/01/20 00:15:47;;;;;;;5.23;2.47;;;;;;;;;;5072806;28;20067;-86
2023/01/20 00:18:32;;;;;;;6.37;2.43;;;;;;;;;;5058027;28;20043;-86
2023/01/20 00:21:16;;;;;;;4.03;2.83;;;;;;;;;;5044392;28;20039;-85
2023/01/20 00:24:01;;;;;;;4.70;2.50;;;;;;;;;;5053473;28;20527;-85
2023/01/20 00:26:46;;;;;;;5.87;2.70;;;;;;;;;;5052216;28;20034;-85
2023/01/20 00:29:30;;;;;;;6.30;2.43;;;;;;;;;;5053319;28;20044;-86
2023/01/20 00:32:15;;;;;;;6.50;2.87;;;;;;;;;;5037025;28;20071;-85
2023/01/20 00:34:59;;;;;;;7.03;3.33;;;;;;;;;;5065899;28;20396;-85
2023/01/20 00:37:43;;;;;;;6.50;3.37;;;;;;;;;;5040295;28;20512;-85
2023/01/20 00:40:28;;;;;;;6.43;3.83;;;;;;;;;;5051661;28;20524;-85
2023/01/20 00:43:13;;;;;;;7.23;3.50;;;;;;;;;;5052596;28;20063;-85
2023/01/20 00:45:57;;;;;;;10.50;4.77;;;;;;;;;;5052525;28;20139;-85
2023/01/20 00:48:42;;;;;;;8.17;3.83;;;;;;;;;;5051887;28;20499;-86
2023/01/20 00:51:26;;;;;;;7.43;3.80;;;;;;;;;;5051846;28;20035;-86
2023/01/20 00:54:11;;;;;;;6.67;4.10;;;;;;;;;;5051325;28;20040;-88
2023/01/20 00:56:56;;;;;;;11.40;4.87;;;;;;;;;;5037093;28;20105;-87
2023/01/20 00:59:40;;;;;;;8.97;5.20;;;;;;;;;;5066562;28;20044;-86
2023/01/20 01:02:25;;;;;;;11.70;5.97;;;;;;;;;;5051419;28;20091;-86
2023/01/20 01:05:09;;;;;;;15.17;6.57;;;;;;;;;;5051236;28;20515;-86
2023/01/20 01:07:54;;;;;;;14.10;7.23;;;;;;;;;;5051030;28;20501;-86
2023/01/20 01:10:39;;;;;;;18.87;8.03;;;;;;;;;;5079989;28;20444;-86
2023/01/20 01:13:24;;;;;;;19.00;8.17;;;;;;;;;;5040496;28;20497;-85
2023/01/20 01:16:12;;;;;;;16.10;8.23;;;0.00;99.90;;;;;;5051196;28;20412;-86
2023/01/20 01:18:57;;;;;;;14.40;7.43;;;;;;;;;;5052254;28;20102;-86
2023/01/20 01:21:41;;;;;;;16.37;8.60;;;;;;;;;;5052279;28;20501;-86
2023/01/20 01:24:26;;;;;;;18.53;9.30;;;;;;;;;;5057346;28;20455;-85
2023/01/20 01:27:11;;;;;;;20.17;9.03;;;;;;;;;;5072020;28;20036;-86
2023/01/20 01:29:55;;;;;;;20.60;9.00;;;;;;;;;;5085271;28;20048;-86
2023/01/20 01:32:40;;;;;;;15.40;7.93;;;;;;;;;;5084399;28;20056;-87
2023/01/20 01:35:24;;;;;;;19.93;8.50;;;;;;;;;;5037260;28;20086;-85
2023/01/20 01:38:09;;;;;;;22.47;8.90;;;;;;;;;;5053729;28;20038;-85
2023/01/20 01:40:54;;;;;;;21.43;10.17;;;;;;;;;;5072043;28;20047;-85
2023/01/20 01:43:39;;;;;;;22.17;11.13;;;;;;;;;;5073196;28;20047;-85
2023/01/20 01:46:24;;;;;;;28.33;11.73;;;;;;;;;;5075975;28;20043;-85
2023/01/20 01:49:19;;;;;;;33.27;12.53;;;0.20;99.90;;;;;;5060653;28;20117;-85
2023/01/20 01:52:08;;;;;;;27.97;13.27;;;0.20;99.90;;;;;;5049198;28;20067;-85
2023/01/20 01:54:53;;;;;;;31.50;13.23;;;;;;;;;;5076280;28;20073;-85
2023/01/20 01:57:38;;;;;;;30.60;12.00;;;;;;;;;;5061148;28;20090;-85
2023/01/20 02:00:22;;;;;;;25.47;13.10;;;;;;;;;;5076062;28;20035;-85
2023/01/20 02:03:07;;;;;;;29.63;13.83;;;;;;;;;;5075390;28;20043;-86
2023/01/20 02:05:53;;;;;;;23.83;12.03;;;0.30;99.90;;;;;;5075991;28;20091;-85
2023/01/20 02:08:38;;;;;;;23.03;11.10;;;;;;;;;;5057872;28;20044;-84
2023/01/20 02:11:23;;;;;;;25.53;12.07;;;;;;;;;;5060290;28;20496;-85
2023/01/20 02:14:08;;;;;;;25.73;11.97;;;;;;;;;;5075412;28;20055;-84
2023/01/20 02:17:28;;;;;;;26.80;11.83;;;0.40;99.90;;;;;;5060489;28;20039;-85
2023/01/20 02:20:50;;;;;;;19.77;10.80;;;0.40;99.90;;;;;;5046040;28;20066;-84
2023/01/20 02:23:45;;;;;;;18.37;10.77;;;;;;;;;;5061160;28;20554;-85
2023/01/20 02:26:41;;;;;;;19.23;10.33;;;0.40;99.90;;;;;;5075611;28;20043;-85
2023/01/20 02:29:50;;;;;;;20.37;11.20;;;0.60;99.90;;;;;;5075545;28;20396;-85
2023/01/20 02:32:54;;;;;;;19.03;10.43;;;0.50;99.90;;;;;;5060150;28;20044;-85
2023/01/20 02:36:10;;;;;;;20.60;10.97;;;0.50;99.90;;;;;;5061298;28;20036;-84
2023/01/20 02:39:03;;;;;;;21.47;13.03;;;0.50;99.90;;;;;;5055638;28;20114;-85
2023/01/20 02:42:11;;;;;;;20.07;10.97;;;0.50;99.90;;;;;;5075196;28;20035;-85
2023/01/20 02:45:07;;;;;;;20.53;10.60;;;0.50;99.90;;;;;;5075197;28;20355;-86
2023/01/20 02:47:55;;;;;;;22.40;11.67;;;;;;;;;;5074100;28;20090;-85
2023/01/20 02:50:58;;;;;;;21.30;12.10;;;;;;;;;;5061684;28;20124;-85
2023/01/20 02:53:47;;;;;;;21.17;11.80;;;0.40;99.90;;;;;;5065973;28;20059;-85
2023/01/20 02:56:34;;;;;;;22.17;12.33;;;;;;;;;;5073301;28;20032;-86
2023/01/20 02:59:23;;;;;;;25.60;13.43;;;0.50;99.90;;;;;;5073733;28;20443;-87
2023/01/20 03:02:21;;;;;;;25.20;13.87;;;0.40;99.90;;;;;;5074281;28;20097;-86
2023/01/20 03:05:11;;;;;;;21.63;12.97;;;0.40;99.90;;;;;;5059568;28;20047;-85
2023/01/20 03:07:59;;;;;;;26.33;14.37;;;0.40;99.90;;;;;;5060419;28;20113;-87
2023/01/20 03:10:45;;;;;;;24.13;13.57;;;0.40;99.90;;;;;;5074453;28;20036;-85
2023/01/20 03:13:37;;;;;;;28.07;12.93;;;0.30;99.90;;;;;;5073894;28;20040;-85
2023/01/20 03:16:24;;;;;;;23.87;12.80;;;;;;;;;;5058821;28;20071;-85
2023/01/20 03:19:09;;;;;;;23.53;13.80;;;;;;;;;;5074261;28;20067;-92
2023/01/20 03:21:54;;;;;;;25.03;13.63;;;;;;;;;;5059123;28;20047;-85
2023/01/20 03:24:41;;;;;;;25.00;13.93;;;0.20;99.90;;;;;;5058866;28;20060;-85
2023/01/20 03:27:26;;;;;;;24.87;14.40;;;;;;;;;;5061009;28;20035;-85
2023/01/20 03:30:15;;;;;;;24.27;13.00;;;0.20;99.90;;;;;;5058814;28;20487;-88
2023/01/20 03:33:00;;;;;;;24.73;13.47;;;;;;;;;;5058915;28;20443;-86
2023/01/20 03:35:46;;;;;;;27.23;14.37;;;;;;;;;;5039276;28;20508;-84
2023/01/20 03:38:30;;;;;;;30.10;14.83;;;;;;;;;;5068817;28;20074;-85
2023/01/20 03:41:21;;;;;;;30.77;14.13;;;;;;;;;;5038424;28;20041;-85
2023/01/20 03:44:11;;;;;;;31.87;14.63;;;;;;;;;;5054327;28;20047;-84
2023/01/20 03:47:05;;;;;;;31.90;13.77;;;;;;;;;;5073960;28;20036;-87
2023/01/20 03:50:02;;;;;;;30.45;14.20;;;;;;;;;;5073859;28;20071;-85
2023/01/20 03:52:54;;;;;;;34.33;15.87;;;0.20;99.90;;;;;;5073379;28;20455;-85
2023/01/20 03:55:59;;;;;;;30.17;15.13;;;;;;;;;;5073780;28;20161;-86
2023/01/20 03:58:48;;;;;;;32.10;15.03;;;0.20;99.90;;;;;;5058436;28;20515;-85
2023/01/20 04:01:35;;;;;;;31.17;14.87;;;0.20;99.90;;;;;;5072813;28;20031;-85
2023/01/20 04:04:20;;;;;;;31.60;15.67;;;;;;;;;;5058015;28;20131;-87
2023/01/20 04:07:08;;;;;;;33.33;16.03;;;;;;;;;;5057391;28;20079;-85
2023/01/20 04:09:58;;;;;;;28.10;15.10;;;;;;;;;;5073530;28;20120;-85
2023/01/20 04:12:42;;;;;;;35.70;15.03;;;;;;;;;;5057563;28;20395;-85
2023/01/20 04:15:31;;;;;;;35.20;16.53;;;0.20;99.90;;;;;;5031442;28;20040;-85
2023/01/20 04:18:15;;;;;;;31.63;14.67;;;;;;;;;;5072775;28;20166;-85
2023/01/20 04:21:01;;;;;;;32.67;14.70;;;;;;;;;;5073238;28;20050;-87
2023/01/20 04:23:51;;;;;;;35.37;16.43;;;0.20;99.90;;;;;;5044007;28;20059;-84
2023/01/20 04:26:36;;;;;;;33.13;15.90;;;;;;;;;;5072654;28;20046;-85
2023/01/20 04:29:21;;;;;;;31.43;14.37;;;;;;;;;;5037595;28;20043;-85
2023/01/20 04:32:05;;;;;;;32.27;15.03;;;;;;;;;;5056098;28;20130;-84
2023/01/20 04:34:51;;;;;;;34.60;16.07;;;;;;;;;;5072853;28;20047;-86
2023/01/20 04:37:35;;;;;;;33.33;16.27;;;;;;;;;;5072575;28;20085;-85
2023/01/20 04:40:20;;;;;;;30.70;13.43;;;;;;;;;;5072933;28;20043;-85
2023/01/20 04:43:04;;;;;;;39.30;15.63;;;;;;;;;;5057608;28;20487;-85
2023/01/20 04:45:49;;;;;;;37.50;15.57;;;;;;;;;;5057440;28;20372;-85
2023/01/20 04:48:33;;;;;;;33.13;14.27;;;;;;;;;;5057400;28;20440;-85
2023/01/20 04:51:18;;;;;;;29.00;13.90;;;;;;;;;;5042309;28;20075;-85
2023/01/20 04:54:02;;;;;;;31.80;13.33;;;;;;;;;;5037857;28;20056;-85
2023/01/20 04:56:50;;;;;;;36.17;15.40;;;;;;;;;;5044872;28;20393;-85
2023/01/20 04:59:34;;;;;;;35.50;14.37;;;;;;;;;;5072034;28;20508;-85
2023/01/20 05:02:19;;;;;;;33.10;13.60;;;;;;;;;;5057436;28;20476;-84
2023/01/20 05:05:03;;;;;;;33.07;15.00;;;;;;;;;;5037355;28;20039;-85
2023/01/20 05:07:52;;;;;;;32.33;13.67;;;0.30;99.90;;;;;;5056071;28;20425;-85
2023/01/20 05:10:36;;;;;;;35.20;15.70;;;;;;;;;;5056507;28;20044;-85
2023/01/20 05:13:20;;;;;;;32.47;15.00;;;;;;;;;;5041370;28;20090;-85
2023/01/20 05:16:09;;;;;;;35.27;15.27;;;0.30;99.90;;;;;;5071475;28;20059;-85
2023/01/20 05:18:54;;;;;;;34.23;14.90;;;;;;;;;;5057402;28;20039;-85
2023/01/20 05:21:38;;;;;;;33.13;15.33;;;;;;;;;;5056468;28;20074;-84
2023/01/20 05:24:23;;;;;;;31.83;14.23;;;;;;;;;;5072414;28;20048;-84
2023/01/20 05:27:07;;;;;;;34.63;14.97;;;;;;;;;;5042830;28;20090;-85
2023/01/20 05:29:52;;;;;;;30.33;14.43;;;;;;;;;;5056657;28;20043;-85
2023/01/20 05:32:37;;;;;;;32.63;16.30;;;;;;;;;;5072032;28;20048;-85
2023/01/20 05:35:21;;;;;;;34.73;14.47;;;;;;;;;;5040539;28;20043;-85
2023/01/20 05:38:06;;;;;;;32.87;15.00;;;;;;;;;;5072394;28;20567;-85
2023/01/20 05:41:01;;;;;;;32.27;15.70;;;0.30;99.90;;;;;;5071888;28;20032;-85
2023/01/20 05:43:46;;;;;;;34.20;16.67;;;;;;;;;;5064686;28;20097;-85
2023/01/20 05:46:31;;;;;;;31.57;15.60;;;;;;;;;;5071974;28;20068;-84
2023/01/20 05:49:15;;;;;;;36.50;14.80;;;;;;;;;;5043006;28;20075;-85
2023/01/20 05:52:00;;;;;;;32.97;16.63;;;;;;;;;;5072074;28;20071;-85
2023/01/20 05:54:44;;;;;;;40.97;16.83;;;;;;;;;;5071606;28;20039;-87
2023/01/20 05:57:29;;;;;;;34.00;16.17;;;;;;;;;;5042761;28;20129;-85
2023/01/20 06:00:14;;;;;;;33.63;15.20;;;;;;;;;;5056867;28;20036;-85
2023/01/20 06:02:59;;;;;;;33.57;16.73;;;;;;;;;;5056923;28;20044;-85
2023/01/20 06:05:43;;;;;;;32.97;15.10;;;;;;;;;;5056194;28;20086;-85
2023/01/20 06:08:28;;;;;;;39.17;17.83;;;;;;;;;;5037057;28;20063;-85
2023/01/20 06:11:14;;;;;;;30.70;13.73;;;;;;;;;;5068308;28;20090;-84
2023/01/20 06:13:58;;;;;;;35.17;16.33;;;;;;;;;;5071672;28;20048;-85
2023/01/20 06:16:43;;;;;;;30.47;15.77;;;;;;;;;;5056213;28;20035;-85
2023/01/20 06:19:27;;;;;;;32.50;14.90;;;;;;;;;;5056393;28;20413;-85
2023/01/20 06:22:18;;;;;;;32.03;15.50;;;0.40;99.90;;;;;;5056449;28;20113;-85
2023/01/20 06:25:03;;;;;;;37.83;16.10;;;;;;;;;;5071485;28;20115;-85
2023/01/20 06:27:48;;;;;;;30.50;15.60;;;;;;;;;;5071426;28;20043;-85
2023/01/20 06:30:33;;;;;;;36.27;16.70;;;;;;;;;;5044739;28;20397;-84
2023/01/20 06:33:17;;;;;;;36.20;16.33;;;;;;;;;;5060178;28;20157;-85
2023/01/20 06:36:01;;;;;;;33.73;15.23;;;;;;;;;;5059795;28;20086;-85
2023/01/20 06:38:49;;;;;;;36.13;17.03;;;;;;;;;;5074810;28;20500;-85
2023/01/20 06:41:34;;;;;;;34.03;17.37;;;;;;;;;;5056069;28;20039;-85
2023/01/20 06:44:18;;;;;;;33.97;16.97;;;;;;;;;;5074945;28;20499;-85
2023/01/20 06:47:03;;;;;;;33.43;17.03;;;;;;;;;;5074225;28;20539;-85
2023/01/20 06:49:47;;;;;;;37.07;17.77;;;;;;;;;;5068341;28;20465;-85
2023/01/20 06:52:32;;;;;;;36.33;19.00;;;;;;;;;;5065560;28;20075;-85
2023/01/20 06:55:16;;;;;;;36.67;17.27;;;;;;;;;;5077363;28;20131;-85
2023/01/20 06:58:01;;;;;;;38.47;17.33;;;;;;;;;;5047248;28;20044;-84
2023/01/20 07:00:45;;;;;;;41.50;18.07;;;;;;;;;;5043917;28;20443;-85
2023/01/20 07:03:30;;;;;;;35.00;17.80;;;;;;;;;;5068461;28;20132;-84
2023/01/20 07:06:15;;;;;;;38.97;17.27;;;0.40;99.90;;;;;;5045724;28;20552;-85
2023/01/20 07:09:00;;;;;;;40.33;18.40;;;0.40;99.90;;;;;;5048629;28;20032;-85
2023/01/20 07:11:45;;;;;;;37.10;17.67;;;;;;;;;;5068253;28;20091;-85
2023/01/20 07:14:30;;;;;;;34.50;16.70;;;;;;;;;;5065388;28;20040;-84
2023/01/20 07:17:14;;;;;;;36.97;17.63;;;;;;;;;;5045135;28;20051;-84
2023/01/20 07:19:59;;;;;;;38.47;18.10;;;;;;;;;;5052672;28;20043;-85
2023/01/20 07:22:43;;;;;;;40.27;19.33;;;;;;;;;;5086787;28;20067;-89
2023/01/20 07:25:28;;;;;;;40.70;19.73;;;;;;;;;;5068331;28;20040;-84
2023/01/20 07:28:12;;;;;;;44.13;21.13;;;;;;;;;;5053218;28;20044;-85
2023/01/20 07:31:09;;;;;;;42.20;20.43;;;0.60;99.90;;;;;;5060176;28;20151;-85
2023/01/20 07:33:55;;;;;;;46.00;20.93;;;;;;;;;;5067618;28;20443;-84
2023/01/20 07:36:39;;;;;;;43.83;20.37;;;;;;;;;;5081250;28;20507;-85
2023/01/20 07:39:24;;;;;;;37.47;18.37;;;;;;;;;;5081320;28;20157;-84
2023/01/20 07:42:09;;;;;;;45.37;19.80;;;;;;;;;;5056206;28;20036;-85
2023/01/20 07:44:53;;;;;;;46.17;21.60;;;;;;;;;;5070783;28;20401;-85
2023/01/20 07:47:38;;;;;;;45.20;19.60;;;;;;;;;;5055322;28;20032;-85
2023/01/20 07:50:22;;;;;;;42.60;19.83;;;;;;;;;;5086095;28;20038;-85
2023/01/20 07:53:07;;;;;;;40.67;20.33;;;;;;;;;;5056578;28;20039;-85
2023/01/20 07:55:51;;;;;;;39.77;19.17;;;;;;;;;;5085189;28;20035;-84
2023/01/20 07:58:36;;;;;;;45.33;19.67;;;;;;;;;;5071578;28;20181;-84
2023/01/20 08:01:23;;;;;;;41.23;21.43;;;0.50;99.90;;;;;;5067741;28;20086;-85
2023/01/20 08:04:07;;;;;;;44.47;20.17;;;;;;;;;;5057702;28;20448;-84
2023/01/20 08:06:52;;;;;;;46.00;21.37;;;;;;;;;;5068618;28;20574;-85
2023/01/20 08:09:40;;;;;;;47.90;21.07;;;;;;;;;;5053903;28;20083;-86
2023/01/20 08:12:25;;;;;;;41.10;20.30;;;;;;;;;;5081623;28;20043;-85
2023/01/20 08:15:10;;;;;;;44.33;19.70;;;;;;;;;;5057629;28;20048;-85
2023/01/20 08:17:59;;;;;;;42.27;20.47;;;;;;;;;;5084301;28;20112;-86
2023/01/20 08:20:44;;;;;;;44.53;21.87;;;;;;;;;;5042742;28;20051;-84
2023/01/20 08:23:28;;;;;;;49.63;21.93;;;;;;;;;;5042204;28;20079;-84
2023/01/20 08:26:13;;;;;;;44.47;21.93;;;;;;;;;;5078050;28;20112;-85
2023/01/20 08:29:10;;;;;;;53.50;24.60;;;0.60;99.90;;;;;;5050810;28;20112;-84
2023/01/20 08:31:55;;;;;;;47.27;21.80;;;;;;;;;;5045140;28;20389;-86
2023/01/20 08:34:39;;;;;;;36.67;20.20;;;;;;;;;;5057952;28;20185;-84
2023/01/20 08:37:24;;;;;;;48.57;21.70;;;;;;;;;;5067035;28;20508;-84
2023/01/20 08:40:09;;;;;;;45.63;22.40;;;;;;;;;;5046648;28;20032;-85
2023/01/20 08:42:54;;;;;;;49.60;22.37;;;;;;;;;;5072949;28;20039;-84
2023/01/20 08:45:38;;;;;;;42.23;22.23;;;;;;;;;;5057716;28;20090;-85
2023/01/20 08:48:23;;;;;;;44.23;21.07;;;;;;;;;;5072871;28;20047;-84
2023/01/20 08:51:12;;;;;;;50.50;22.20;;;0.70;99.90;;;;;;5072340;28;20125;-85
2023/01/20 08:53:58;;;;;;;46.23;20.80;;;0.70;99.90;;;;;;5072081;28;20055;-92
2023/01/20 08:56:43;;;;;;;45.20;20.63;;;;;;;;;;5046310;28;20408;-85
2023/01/20 08:59:27;;;;;;;43.97;19.87;;;;;;;;;;5072616;28;20090;-85
2023/01/20 09:02:12;;;;;;;51.80;22.43;;;0.80;99.90;;;;;;5049135;28;20047;-85
2023/01/20 09:04:57;;;;;;;43.20;21.37;;;;;;;;;;5057410;28;20119;-85
2023/01/20 09:07:41;;;;;;;47.10;21.63;;;;;;;;;;5057235;28;20040;-85
2023/01/20 09:10:26;;;;;;;47.33;22.60;;;;;;;;;;5045994;28;20078;-86
2023/01/20 09:13:10;;;;;;;42.40;19.90;;;;;;;;;;5071566;28;20056;-87
2023/01/20 09:15:55;;;;;;;47.33;20.60;;;;;;;;;;5057329;28;20077;-86
2023/01/20 09:18:39;;;;;;;48.23;22.17;;;;;;;;;;5051288;28;20043;-86
2023/01/20 09:21:24;;;;;;;50.20;24.53;;;;;;;;;;5079663;28;20048;-85
2023/01/20 09:24:09;;;;;;;49.97;21.47;;;;;;;;;;5042290;28;20553;-86
2023/01/20 09:26:53;;;;;;;55.90;24.37;;;;;;;;;;5043046;28;20409;-86
2023/01/20 09:29:38;;;;;;;50.10;21.53;;;;;;;;;;5045292;28;20087;-86
2023/01/20 09:32:22;;;;;;;46.27;21.03;;;;;;;;;;5056707;28;20051;-86
2023/01/20 09:35:07;;;;;;;52.70;24.93;;;1.10;99.90;;;;;;5056586;28;20110;-87
2023/01/20 09:44:01;;;;;;;53.43;20.97;;;;;;;;;;5071971;28;20094;-85
2023/01/20 09:47:18;;;;;;;54.47;22.33;;;0.90;99.90;;;;;;5057087;28;20428;-85
2023/01/20 09:53:40;;;;;;;49.37;22.83;;;1.00;99.90;;;;;;5058849;28;20082;-85
2023/01/20 09:56:27;;;;;;;47.17;20.27;;;1.00;99.90;;;;;;5066731;28;20231;-85
2023/01/20 09:59:43;;;;;;;51.60;22.50;;;1.00;99.90;;;;;;5050138;28;20039;-86
2023/01/20 10:02:34;;;;;;;54.90;23.83;;;1.00;99.90;;;;;;5064121;28;20645;-85
2023/01/20 10:05:22;;;;;;;52.20;22.87;;;1.10;99.90;;;;;;5050520;28;20048;-86
2023/01/20 10:08:42;;;;;;;48.33;23.60;;;1.10;99.90;;;;;;5055787;28;20032;-85
2023/01/20 10:11:30;;;;;;;52.60;21.67;;;1.10;99.90;;;;;;5056920;28;20500;-85
2023/01/20 10:14:22;;;;;;;51.07;22.17;;;1.10;99.90;;;;;;5075149;28;20055;-85
2023/01/20 10:17:30;;;;;;;55.27;22.47;;;1.10;99.90;;;;;;5060484;28;20040;-86
2023/01/20 10:20:20;;;;;;;47.97;20.53;;;1.10;99.90;;;;;;5053483;28;20499;-85
2023/01/20 10:23:13;;;;;;;49.07;20.40;;;;;;;;;;5045990;28;20063;-85
2023/01/20 10:25:58;;;;;;;49.33;20.93;;;;;;;;;;5060373;28;20036;-84
2023/01/20 10:28:50;;;;;;;49.77;21.77;;;1.10;99.90;;;;;;5074748;28;20328;-85
2023/01/20 10:31:38;;;;;;;49.30;22.53;;;;;;;;;;5071185;28;20031;-86
2023/01/20 10:34:23;;;;;;;51.60;22.13;;;;;;;;;;5070288;28;20077;-85
2023/01/20 10:37:09;;;;;;;48.57;21.60;;;;;;;;;;5058031;28;20036;-86
2023/01/20 10:40:02;;;;;;;54.07;23.67;;;1.20;99.90;;;;;;5068654;28;20035;-87
2023/01/20 10:42:49;;;;;;;49.07;21.57;;;1.30;99.90;;;;;;5073720;28;20067;-85
2023/01/20 10:46:08;;;;;;;51.13;22.87;;;1.30;99.90;;;;;;5059364;28;20113;-86
2023/01/20 10:49:17;;;;;;;50.77;21.83;;;1.30;99.90;;;;;;5039852;28;20171;-85
2023/01/20 10:52:20;;;;;;;50.47;21.70;;;1.30;99.90;;;;;;5066584;28;20116;-85
2023/01/20 10:55:05;;;;;;;48.03;21.63;;;;;;;;;;5075027;28;20086;-85
2023/01/20 10:57:55;;;;;;;46.63;20.67;;;;;;;;;;5061255;28;20048;-85
2023/01/20 11:00:41;;;;;;;46.30;19.90;;;1.20;99.90;;;;;;5074332;28;20606;-86
2023/01/20 11:03:25;;;;;;;44.70;19.13;;;;;;;;;;5054637;28;20101;-86
2023/01/20 11:06:20;;;;;;;42.60;19.57;;;1.20;99.90;;;;;;5054281;28;20124;-86
2023/01/20 11:09:20;;;;;;;44.43;20.27;;;1.40;99.90;;;;;;5067652;28;20043;-85
2023/01/20 11:12:27;;;;;;;45.47;20.73;;;1.30;99.90;;;;;;5074267;28;20496;-86
2023/01/20 11:15:29;;;;;;;38.57;17.83;;;1.30;99.90;;;;;;5063171;28;20499;-87
2023/01/20 11:18:13;;;;;;;44.80;20.00;;;;;;;;;;5076124;28;20432;-86
2023/01/20 11:21:01;;;;;;;44.80;19.80;;;;;;;;;;5068818;28;20031;-86
2023/01/20 11:23:56;;;;;;;48.07;19.50;;;1.30;99.90;;;;;;5070651;28;20064;-87
2023/01/20 11:26:41;;;;;;;44.10;19.77;;;;;;;;;;5039359;28;20132;-86
2023/01/20 11:29:29;;;;;;;40.33;18.83;;;1.40;99.90;;;;;;5060643;28;20389;-85
2023/01/20 11:32:42;;;;;;;41.67;20.00;;;1.30;99.90;;;;;;5060443;28;20056;-85
2023/01/20 11:35:27;;;;;;;46.73;21.23;;;;;;;;;;5049743;28;20393;-86
2023/01/20 11:38:23;;;;;;;48.97;19.93;;;1.30;99.90;;;;;;5059323;28;20052;-85
2023/01/20 11:41:29;;;;;;;46.33;20.20;;;1.30;99.90;;;;;;5074064;28;20500;-85
2023/01/20 11:44:19;;;;;;;45.87;19.03;;;1.30;99.90;;;;;;5058800;28;20042;-86
2023/01/20 11:47:25;;;;;;;41.53;18.13;;;1.30;99.90;;;;;;5058678;28;20043;-85
2023/01/20 11:50:10;;;;;;;48.17;21.27;;;;;;;;;;5063363;28;20043;-85
2023/01/20 11:53:18;;;;;;;43.20;18.53;;;1.30;99.90;;;;;;5059676;28;20048;-87
2023/01/20 11:56:16;;;;;;;37.83;17.07;;;;;;;;;;5058388;28;20508;-85
2023/01/20 11:59:03;;;;;;;43.07;17.80;;;1.30;99.90;;;;;;5073772;28;20074;-85
2023/01/20 12:01:53;;;;;;;38.30;17.23;;;1.50;99.90;;;;;;5051302;28;20063;-85
2023/01/20 12:05:00;;;;;;;44.30;17.57;;;1.30;99.90;;;;;;5053315;28;20072;-85
2023/01/20 12:07:47;;;;;;;40.73;18.60;;;1.30;99.90;;;;;;5038322;28;20036;-89
2023/01/20 12:10:36;;;;;;;39.73;17.87;;;1.30;99.90;;;;;;5073221;28;20040;-86
2023/01/20 12:13:26;;;;;;;42.17;18.63;;;1.30;99.90;;;;;;5059338;28;20090;-86
2023/01/20 12:16:11;;;;;;;41.90;17.57;;;;;;;;;;5060005;28;20498;-86
2023/01/20 12:19:00;;;;;;;43.03;17.97;;;1.40;99.90;;;;;;5041009;28;20035;-86
2023/01/20 12:21:50;;;;;;;42.73;19.97;;;1.40;99.90;;;;;;5069969;28;20129;-85
2023/01/20 12:25:08;;;;;;;44.27;18.80;;;1.40;99.90;;;;;;5072748;28;20055;-85
2023/01/20 12:28:08;;;;;;;44.33;18.87;;;1.40;99.90;;;;;;5062431;28;20070;-86
2023/01/20 12:30:53;;;;;;;41.93;17.50;;;;;;;;;;5057285;28;20046;-85
2023/01/20 12:33:40;;;;;;;44.77;18.97;;;1.30;99.90;;;;;;5070794;28;20503;-86
2023/01/20 12:36:49;;;;;;;49.47;19.53;;;1.30;99.90;;;;;;5072793;28;20040;-86
2023/01/20 12:39:37;;;;;;;47.20;20.57;;;;;;;;;;5060572;28;20046;-92
2023/01/20 12:42:27;;;;;;;43.50;19.03;;;;;;;;;;5071229;28;20047;-85
2023/01/20 12:45:29;;;;;;;45.53;19.67;;;1.40;99.90;;;;;;5072571;28;20043;-85
2023/01/20 12:48:41;;;;;;;44.33;18.83;;;1.40;99.90;;;;;;5060426;28;20036;-87
2023/01/20 12:51:42;;;;;;;43.50;19.40;;;1.40;99.90;;;;;;5057409;28;20039;-85
2023/01/20 12:54:26;;;;;;;44.73;19.93;;;;;;;;;;5072346;28;20082;-85
2023/01/20 12:57:17;;;;;;;41.17;19.77;;;;;;;;;;5072873;28;20040;-85
2023/01/20 13:00:01;;;;;;;38.30;17.90;;;;;;;;;;5071889;28;20109;-84
2023/01/20 13:02:51;;;;;;;44.03;20.70;;;1.40;99.90;;;;;;5069060;28;20074;-85
2023/01/20 13:05:51;;;;;;;40.70;17.37;;;1.40;99.90;;;;;;5068809;28;20446;-89
2023/01/20 13:08:58;;;;;;;38.80;16.73;;;1.40;99.90;;;;;;5054853;28;20039;-90
2023/01/20 13:11:49;;;;;;;42.27;17.30;;;1.40;99.90;;;;;;5071740;28;20558;-86
2023/01/20 13:14:43;;;;;;;44.53;17.90;;;1.40;99.90;;;;;;5043885;28;20401;-86
2023/01/20 13:17:32;;;;;;;38.05;18.00;;;1.40;99.90;;;;;;5063338;28;20393;-85
2023/01/20 13:20:24;;;;;;;39.60;17.53;;;;;;;;;;5042928;28;20036;-86
2023/01/20 13:23:13;;;;;;;36.33;17.23;;;1.40;99.90;;;;;;5058133;28;20178;-85
2023/01/20 13:26:00;;;;;;;37.73;17.87;;;;;;;;;;5053084;28;20295;-85
2023/01/20 13:28:51;;;;;;;43.87;18.80;;;;;;;;;;5060569;28;20032;-85
2023/01/20 13:31:36;;;;;;;38.47;18.53;;;;;;;;;;5080451;28;20504;-85
2023/01/20 13:34:21;;;;;;;39.37;18.67;;;;;;;;;;5053290;28;20040;-85
2023/01/20 13:37:08;;;;;;;39.07;19.17;;;;;;;;;;5080568;28;20075;-86
2023/01/20 13:39:53;;;;;;;36.30;17.37;;;1.40;99.90;;;;;;5055966;28;20068;-85
2023/01/20 13:42:38;;;;;;;41.80;20.30;;;;;;;;;;5058229;28;20039;-85
2023/01/20 13:45:23;;;;;;;47.73;22.53;;;;;;;;;;5061198;28;20508;-86
2023/01/20 13:48:08;;;;;;;40.97;20.33;;;;;;;;;;5076358;28;20031;-85
2023/01/20 13:50:52;;;;;;;43.37;18.97;;;;;;;;;;5060584;28;20086;-85
2023/01/20 13:53:37;;;;;;;43.73;19.97;;;;;;;;;;5060962;28;20134;-85
2023/01/20 13:56:31;;;;;;;41.07;18.00;;;1.40;99.90;;;;;;5060714;28;20059;-85
2023/01/20 13:59:16;;;;;;;38.30;17.40;;;;;;;;;;5060849;28;20035;-86
2023/01/20 14:02:21;;;;;;;38.70;17.73;;;1.40;99.90;;;;;;5075637;28;20488;-85
2023/01/20 14:05:19;;;;;;;37.90;17.77;;;1.40;99.90;;;;;;5062008;28;20043;-85
2023/01/20 14:08:12;;;;;;;40.30;18.87;;;1.30;99.90;;;;;;5060213;28;20085;-85
2023/01/20 14:11:11;;;;;;;39.92;18.58;;;1.40;99.90;;;;;;5060168;28;20036;-85
2023/01/20 14:13:57;;;;;;;41.30;18.03;;;1.30;99.90;;;;;;5049204;28;20039;-85
2023/01/20 14:16:43;;;;;;;38.43;17.83;;;;;;;;;;5075593;28;20031;-85
2023/01/20 14:19:32;;;;;;;36.67;18.17;;;1.40;99.90;;;;;;5060525;28;20098;-85
2023/01/20 14:22:26;;;;;;;38.43;17.47;;;1.40;99.90;;;;;;5075557;28;20063;-86
2023/01/20 14:25:25;;;;;;;40.03;18.52;;;1.40;99.90;;;;;;5074977;28;20064;-85
2023/01/20 14:28:18;;;;;;;45.73;20.17;;;;;;;;;;5059800;28;20048;-88
2023/01/20 14:31:12;;;;;;;122.80;52.57;;;;;;;;;;5075150;28;20499;-85
2023/01/20 14:33:58;;;;;;;55.00;26.58;;;;;;;;;;5074865;28;20047;-85
2023/01/20 14:36:43;;;;;;;51.33;22.27;;;;;;;;;;5075364;28;20153;-85
2023/01/20 14:39:28;;;;;;;58.73;26.77;;;;;;;;;;5075018;28;20035;-85
2023/01/20 14:42:18;;;;;;;48.73;27.70;;;1.40;99.90;;;;;;5074813;28;20043;-85
2023/01/20 14:45:19;;;;;;;43.37;21.07;;;1.30;99.90;;;;;;5059742;28;20098;-85
2023/01/20 14:48:04;;;;;;;52.87;28.60;;;1.40;99.90;;;;;;5059915;28;20086;-85
2023/01/20 14:50:51;;;;;;;45.30;20.47;;;1.30;99.90;;;;;;5074400;28;20042;-85
2023/01/20 14:53:36;;;;;;;50.10;23.47;;;;;;;;;;5059926;28;20508;-85
2023/01/20 14:56:21;;;;;;;49.33;21.30;;;1.30;99.90;;;;;;5059567;28;20446;-85
2023/01/20 14:59:18;;;;;;;55.03;28.20;;;1.40;99.90;;;;;;5074615;28;20081;-85
2023/01/20 15:02:13;;;;;;;60.20;28.00;;;1.30;99.90;;;;;;5059342;28;20130;-85
2023/01/20 15:04:58;;;;;;;37.37;17.87;;;;;;;;;;5059184;28;20152;-85
2023/01/20 15:07:42;;;;;;;39.47;18.67;;;;;;;;;;5074676;28;20548;-85
2023/01/20 15:10:27;;;;;;;35.03;16.60;;;;;;;;;;5063161;28;20116;-85
2023/01/20 15:13:29;;;;;;;50.97;24.13;;;1.20;99.90;;;;;;5056286;28;20043;-85
2023/01/20 15:16:22;;;;;;;44.03;20.97;;;3.40;99.90;;;;;;5039442;28;20043;-85
2023/01/20 15:19:16;;;;;;;58.27;26.63;;;1.60;99.90;;;;;;5057127;28;20495;-85
2023/01/20 15:22:21;;;;;;;39.30;18.43;;;1.20;99.90;;;;;;5073498;28;20086;-85
2023/01/20 15:25:12;;;;;;;39.30;18.67;;;1.30;99.90;;;;;;5056083;28;20055;-85
2023/01/20 15:27:56;;;;;;;51.93;21.20;;;;;;;;;;5058981;28;20047;-89
2023/01/20 15:30:41;;;;;;;36.43;18.20;;;;;;;;;;5060728;28;20039;-85
2023/01/20 15:33:25;;;;;;;104.07;40.50;;;;;;;;;;5040624;28;20098;-85
2023/01/20 15:36:16;;;;;;;51.03;21.90;;;;;;;;;;5058123;28;20120;-85
2023/01/20 15:39:00;;;;;;;73.10;32.17;;;;;;;;;;5072901;28;20115;-86
2023/01/20 15:41:47;;;;;;;117.97;54.97;;;;;;;;;;5057321;28;20101;-88
2023/01/20 15:44:31;;;;;;;42.70;20.13;;;;;;;;;;5057265;28;20048;-86
2023/01/20 15:47:24;;;;;;;43.63;19.57;;;1.20;99.90;;;;;;5062733;28;20035;-85
2023/01/20 15:50:31;;;;;;;41.80;18.50;;;;;;;;;;5046823;28;20137;-84
2023/01/20 15:53:16;;;;;;;77.03;39.30;;;;;;;;;;5055982;28;20126;-85